Time;durP1;ratioP1;P1;durP2;ratioP2;P2;SDS_P1;SDS_P2;PMS_P1;PMS_P2;Temp;Humidity;BMP_temperature;BMP_pressure;BME280_temperature;BME280_humidity;BME280_pressure;Samples;Min_cycle;Max_cycle;Signal;HPM_P1;HPM_P2
2023/04/10 00:02:20;;;;;;;9.20;5.00;;;12.10;62.10;;;;;;5044066;28;20032;-66
2023/04/10 00:04:46;;;;;;;5.70;3.70;;;12.10;62.20;;;;;;5051064;28;20025;-70
2023/04/10 00:07:13;;;;;;;8.80;4.70;;;12.00;62.30;;;;;;5049368;28;20060;-70
2023/04/10 00:09:39;;;;;;;8.90;4.50;;;12.00;62.30;;;;;;5050038;28;20110;-70
2023/04/10 00:12:05;;;;;;;10.45;4.10;;;12.00;62.30;;;;;;5040740;28;20040;-65
2023/04/10 00:14:31;;;;;;;5.93;3.70;;;12.00;62.20;;;;;;5049398;28;20045;-66
2023/04/10 00:16:56;;;;;;;5.57;4.05;;;12.00;62.20;;;;;;5045274;28;20418;-70
2023/04/10 00:19:22;;;;;;;7.15;3.95;;;11.90;62.30;;;;;;5029266;28;20117;-69
2023/04/10 00:21:48;;;;;;;7.05;3.80;;;11.90;62.40;;;;;;5038623;28;20049;-66
2023/04/10 00:24:14;;;;;;;5.32;3.88;;;11.80;62.50;;;;;;5046324;28;20037;-69
2023/04/10 00:26:40;;;;;;;7.57;4.03;;;11.80;62.70;;;;;;5020791;28;20049;-69
2023/04/10 00:29:07;;;;;;;10.10;4.57;;;11.70;62.80;;;;;;5042046;28;20033;-69
2023/04/10 00:31:32;;;;;;;9.15;3.92;;;11.70;62.90;;;;;;5024678;28;20090;-69
2023/04/10 00:33:58;;;;;;;11.85;4.90;;;11.70;63.00;;;;;;5042311;28;20489;-70
2023/04/10 00:36:25;;;;;;;7.80;4.15;;;11.70;63.00;;;;;;5043305;28;20522;-70
2023/04/10 00:38:51;;;;;;;7.40;3.65;;;11.70;63.70;;;;;;5022320;28;20037;-66
2023/04/10 00:41:17;;;;;;;4.65;3.08;;;11.60;63.20;;;;;;5028520;28;20598;-70
2023/04/10 00:43:44;;;;;;;7.75;4.22;;;11.60;63.30;;;;;;5029139;28;20397;-69
2023/04/10 00:46:10;;;;;;;9.07;4.68;;;11.50;63.40;;;;;;5045589;28;20377;-66
2023/04/10 00:48:36;;;;;;;7.03;3.92;;;11.50;63.60;;;;;;5041978;28;20473;-65
2023/04/10 00:51:02;;;;;;;6.35;3.75;;;11.40;63.60;;;;;;5031352;28;20495;-67
2023/04/10 00:53:29;;;;;;;11.43;4.43;;;11.40;63.70;;;;;;5044586;28;20043;-67
2023/04/10 00:55:56;;;;;;;8.32;4.00;;;11.40;63.80;;;;;;5043427;28;20037;-70
2023/04/10 00:58:21;;;;;;;7.10;4.15;;;11.40;63.80;;;;;;5042590;28;20032;-70
2023/04/10 01:00:47;;;;;;;6.68;3.75;;;11.30;63.80;;;;;;5040813;28;20021;-68
2023/04/10 01:03:15;;;;;;;7.22;3.95;;;11.30;63.80;;;;;;5023011;28;20105;-66
2023/04/10 01:05:50;;;;;;;7.22;3.35;;;11.30;64.00;;;;;;5007408;28;20032;-66
2023/04/10 01:08:43;;;;;;;4.55;3.20;;;11.30;64.10;;;;;;5041560;28;20495;-69
2023/04/10 01:11:53;;;;;;;5.88;3.97;;;11.30;64.00;;;;;;5042594;28;20024;-69
2023/04/10 01:14:52;;;;;;;6.15;3.67;;;11.30;64.00;;;;;;5043636;28;20380;-66
2023/04/10 01:17:33;;;;;;;4.18;3.00;;;11.20;64.10;;;;;;5037369;28;20627;-70
2023/04/10 01:20:09;;;;;;;7.97;3.88;;;11.10;64.30;;;;;;5025009;28;20048;-66
2023/04/10 01:23:05;;;;;;;7.22;3.78;;;11.20;64.40;;;;;;5041111;28;20029;-65
2023/04/10 01:25:55;;;;;;;5.40;3.13;;;11.10;64.50;;;;;;5040149;28;20071;-67
2023/04/10 01:29:05;;;;;;;7.32;3.95;;;11.10;64.70;;;;;;5038070;28;20037;-70
2023/04/10 01:32:13;;;;;;;6.35;3.22;;;11.00;65.00;;;;;;4931111;28;20067;-70
2023/04/10 01:34:49;;;;;;;6.15;3.70;;;11.00;65.00;;;;;;4942537;29;20415;-69
2023/04/10 01:37:28;;;;;;;4.40;2.40;;;10.90;65.10;;;;;;5038577;28;20440;-66
2023/04/10 01:39:59;;;;;;;5.60;3.35;;;10.90;65.10;;;;;;5035243;28;20025;-67
2023/04/10 01:42:27;;;;;;;7.43;4.10;;;10.90;65.20;;;;;;5040850;28;20155;-68
2023/04/10 01:44:55;;;;;;;4.90;2.83;;;10.90;65.20;;;;;;5045932;28;20033;-67
2023/04/10 01:47:23;;;;;;;5.15;3.00;;;11.00;65.20;;;;;;5026964;28;20032;-69
2023/04/10 01:49:50;;;;;;;5.35;3.20;;;10.90;65.20;;;;;;5021509;28;20435;-68
2023/04/10 01:52:16;;;;;;;4.70;2.80;;;10.90;65.30;;;;;;5046547;28;20052;-68
2023/04/10 01:54:44;;;;;;;4.40;3.00;;;10.90;65.30;;;;;;5042088;28;20421;-67
2023/04/10 01:57:12;;;;;;;5.07;3.42;;;10.90;65.30;;;;;;5043974;28;20017;-67
2023/04/10 01:59:39;;;;;;;4.60;2.80;;;10.90;65.40;;;;;;5037892;28;20385;-68
2023/04/10 02:02:06;;;;;;;5.07;3.28;;;10.90;65.40;;;;;;5046654;28;20116;-69
2023/04/10 02:04:32;;;;;;;3.90;2.97;;;10.90;65.40;;;;;;5037290;28;20055;-69
2023/04/10 02:07:12;;;;;;;7.18;3.40;;;10.90;65.30;;;;;;5048222;28;20024;-66
2023/04/10 02:10:08;;;;;;;3.55;2.45;;;10.90;65.30;;;;;;5043242;28;20488;-66
2023/04/10 02:13:00;;;;;;;4.25;2.78;;;10.90;65.40;;;;;;5029382;28;20037;-66
2023/04/10 02:15:31;;;;;;;3.80;2.63;;;10.90;65.50;;;;;;5039755;28;20025;-71
2023/04/10 02:17:58;;;;;;;4.53;2.55;;;10.80;65.70;;;;;;5042776;28;20477;-70
2023/04/10 02:20:25;;;;;;;4.25;2.60;;;10.80;65.70;;;;;;5036693;28;20025;-66
2023/04/10 02:22:52;;;;;;;3.40;2.28;;;10.80;65.70;;;;;;5020416;28;20040;-69
2023/04/10 02:25:18;;;;;;;3.58;2.40;;;10.80;65.70;;;;;;5034059;28;20032;-70
2023/04/10 02:27:44;;;;;;;6.70;3.28;;;10.80;65.70;;;;;;5021297;28;20288;-70
2023/04/10 02:30:10;;;;;;;5.60;2.83;;;10.80;65.80;;;;;;5027104;28;20033;-67
2023/04/10 02:32:35;;;;;;;2.60;2.05;;;10.70;65.80;;;;;;5044247;28;20115;-66
2023/04/10 02:35:02;;;;;;;4.53;2.50;;;10.70;65.90;;;;;;5045906;28;20037;-66
2023/04/10 02:37:28;;;;;;;3.90;2.72;;;10.70;66.00;;;;;;5044691;28;20052;-69
2023/04/10 02:39:54;;;;;;;3.45;2.70;;;10.70;66.70;;;;;;5034444;28;20079;-70
2023/04/10 02:42:20;;;;;;;4.90;3.03;;;10.70;66.10;;;;;;5037619;28;20056;-69
2023/04/10 02:44:46;;;;;;;4.47;2.33;;;10.70;66.20;;;;;;5026643;28;20057;-69
2023/04/10 02:47:12;;;;;;;4.15;2.78;;;10.60;66.10;;;;;;5039508;28;20579;-70
2023/04/10 02:49:38;;;;;;;5.60;3.15;;;10.60;66.20;;;;;;5037191;28;20064;-67
2023/04/10 02:52:03;;;;;;;3.33;2.33;;;10.60;66.30;;;;;;5017813;28;20330;-67
2023/04/10 02:54:29;;;;;;;3.75;2.33;;;10.50;66.30;;;;;;5038214;28;20033;-66
2023/04/10 02:56:59;;;;;;;4.47;2.67;;;10.50;66.30;;;;;;5043772;28;20025;-65
2023/04/10 02:59:25;;;;;;;6.07;2.65;;;10.50;66.30;;;;;;5048480;28;20025;-66
2023/04/10 03:01:53;;;;;;;4.10;2.72;;;10.50;66.30;;;;;;5045838;28;20488;-66
2023/04/10 03:04:19;;;;;;;4.97;2.70;;;10.50;66.30;;;;;;5040636;28;20481;-67
2023/04/10 03:06:45;;;;;;;5.70;2.97;;;10.50;66.40;;;;;;5022707;28;20036;-67
2023/04/10 03:09:11;;;;;;;7.60;2.88;;;10.40;66.40;;;;;;5036954;28;20040;-69
2023/04/10 03:11:37;;;;;;;5.15;3.05;;;10.40;66.50;;;;;;5047130;28;20033;-67
2023/04/10 03:14:03;;;;;;;4.65;2.47;;;10.40;66.60;;;;;;5028775;28;20025;-67
2023/04/10 03:16:29;;;;;;;4.75;3.00;;;10.40;66.70;;;;;;5012968;28;20508;-66
2023/04/10 03:18:55;;;;;;;4.43;2.60;;;10.30;66.80;;;;;;5039780;28;20695;-66
2023/04/10 03:21:21;;;;;;;5.10;3.10;;;10.30;66.80;;;;;;5044366;28;20049;-65
2023/04/10 03:23:47;;;;;;;4.05;2.97;;;10.30;67.00;;;;;;5040818;28;20037;-66
2023/04/10 03:26:12;;;;;;;3.88;3.10;;;10.20;67.00;;;;;;5043138;28;20077;-70
2023/04/10 03:28:38;;;;;;;4.85;3.47;;;10.20;67.00;;;;;;5035535;28;20030;-70
2023/04/10 03:31:04;;;;;;;5.00;3.30;;;10.20;67.10;;;;;;5018420;28;20037;-70
2023/04/10 03:33:30;;;;;;;4.75;2.67;;;10.10;67.10;;;;;;5015536;28;20038;-69
2023/04/10 03:35:57;;;;;;;3.78;2.92;;;10.10;67.20;;;;;;5038186;28;20048;-68
2023/04/10 03:38:23;;;;;;;5.13;3.25;;;10.00;67.20;;;;;;5046475;28;20441;-67
2023/04/10 03:40:48;;;;;;;5.47;3.50;;;10.00;67.40;;;;;;5037227;28;20116;-66
2023/04/10 03:43:15;;;;;;;7.22;3.60;;;10.00;67.50;;;;;;5046049;28;20122;-66
2023/04/10 03:45:41;;;;;;;5.90;3.30;;;10.00;67.70;;;;;;5042306;28;20069;-66
2023/04/10 03:48:07;;;;;;;5.78;3.15;;;9.90;67.70;;;;;;5044282;28;20056;-67
2023/04/10 03:50:32;;;;;;;3.60;2.60;;;9.90;67.70;;;;;;5037245;28;20091;-66
2023/04/10 03:53:00;;;;;;;6.70;4.13;;;9.80;67.70;;;;;;5042364;28;20033;-66
2023/04/10 03:55:27;;;;;;;6.55;3.50;;;9.80;67.80;;;;;;5043554;28;20032;-67
2023/04/10 03:57:56;;;;;;;6.80;4.20;;;9.80;67.90;;;;;;5022009;28;20041;-70
2023/04/10 04:00:24;;;;;;;6.57;3.03;;;9.70;67.90;;;;;;5026330;28;20022;-71
2023/04/10 04:02:50;;;;;;;3.75;2.80;;;9.70;68.00;;;;;;5022768;28;20021;-67
2023/04/10 04:05:17;;;;;;;3.78;3.38;;;9.70;68.10;;;;;;5042874;28;20117;-66
2023/04/10 04:07:42;;;;;;;5.82;3.47;;;9.60;68.20;;;;;;5046299;28;20037;-67
2023/04/10 04:10:08;;;;;;;6.35;3.80;;;9.60;68.40;;;;;;5043920;28;20029;-67
2023/04/10 04:12:34;;;;;;;6.22;4.13;;;9.60;68.40;;;;;;5046076;28;20037;-66
2023/04/10 04:14:59;;;;;;;9.43;3.53;;;9.50;68.50;;;;;;5045948;28;20047;-66
2023/04/10 04:17:25;;;;;;;6.43;3.28;;;9.50;68.50;;;;;;5027300;28;20063;-70
2023/04/10 04:19:51;;;;;;;5.65;3.20;;;9.50;68.50;;;;;;5027426;28;20026;-69
2023/04/10 04:22:17;;;;;;;7.22;3.58;;;9.50;68.60;;;;;;5045185;28;20396;-70
2023/04/10 04:24:42;;;;;;;4.40;2.72;;;9.50;68.60;;;;;;5030258;28;20033;-65
2023/04/10 04:27:08;;;;;;;5.65;3.47;;;9.50;68.60;;;;;;5042027;28;20496;-69
2023/04/10 04:29:34;;;;;;;8.23;4.40;;;9.40;68.80;;;;;;5029466;28;20112;-70
2023/04/10 04:31:59;;;;;;;6.82;3.53;;;9.50;68.90;;;;;;5037644;28;20507;-70
2023/04/10 04:34:25;;;;;;;6.50;3.20;;;9.40;68.90;;;;;;5046660;28;20025;-69
2023/04/10 04:36:51;;;;;;;6.85;3.38;;;9.40;68.90;;;;;;5036507;28;20029;-70
2023/04/10 04:39:16;;;;;;;5.85;3.80;;;9.40;69.00;;;;;;5029893;28;20494;-69
2023/04/10 04:41:42;;;;;;;5.82;3.45;;;9.40;69.00;;;;;;5021584;28;20018;-70
2023/04/10 04:44:08;;;;;;;7.18;3.35;;;9.40;69.00;;;;;;5036764;28;20112;-69
2023/04/10 04:46:34;;;;;;;5.97;3.67;;;9.40;69.00;;;;;;5036509;28;20033;-66
2023/04/10 04:49:00;;;;;;;5.65;2.90;;;9.40;69.10;;;;;;5040954;28;20083;-67
2023/04/10 04:51:26;;;;;;;6.28;3.80;;;9.40;69.10;;;;;;5019213;28;20025;-66
2023/04/10 04:53:52;;;;;;;4.75;3.10;;;9.40;69.20;;;;;;5032575;28;20057;-70
2023/04/10 04:56:17;;;;;;;5.60;3.72;;;9.30;69.20;;;;;;5021624;28;20055;-66
2023/04/10 04:58:43;;;;;;;6.63;3.05;;;9.30;69.20;;;;;;5037796;28;20087;-69
2023/04/10 05:01:09;;;;;;;7.10;3.50;;;9.30;69.20;;;;;;5041542;28;20025;-69
2023/04/10 05:03:35;;;;;;;3.55;2.85;;;9.30;69.20;;;;;;5024233;28;20021;-71
2023/04/10 05:06:00;;;;;;;4.05;2.90;;;9.30;69.30;;;;;;5033252;28;20048;-66
2023/04/10 05:08:26;;;;;;;4.68;3.05;;;9.30;69.30;;;;;;5044514;28;20092;-65
2023/04/10 05:10:51;;;;;;;4.88;3.17;;;9.30;69.50;;;;;;5025419;28;20060;-65
2023/04/10 05:13:17;;;;;;;4.28;3.10;;;9.30;69.40;;;;;;5045680;28;20488;-67
2023/04/10 05:15:43;;;;;;;10.80;3.33;;;9.30;69.60;;;;;;5037615;28;20029;-66
2023/04/10 05:18:10;;;;;;;7.78;3.65;;;9.30;69.60;;;;;;5020656;28;20018;-66
2023/04/10 05:20:35;;;;;;;4.95;2.90;;;9.30;69.70;;;;;;5021314;28;20072;-66
2023/04/10 05:23:02;;;;;;;6.32;3.95;;;9.30;69.70;;;;;;5035825;28;20480;-66
2023/04/10 05:25:28;;;;;;;7.28;3.53;;;9.40;69.90;;;;;;5040948;28;20021;-66
2023/04/10 05:27:53;;;;;;;4.75;2.83;;;9.40;69.90;;;;;;5020394;28;20457;-69
2023/04/10 05:30:19;;;;;;;5.35;3.30;;;9.40;70.00;;;;;;5042110;28;20033;-70
2023/04/10 05:32:45;;;;;;;4.75;3.35;;;9.40;70.00;;;;;;5040781;28;20032;-70
2023/04/10 05:35:11;;;;;;;5.00;2.42;;;9.50;70.00;;;;;;5044700;28;20039;-70
2023/04/10 05:37:37;;;;;;;6.05;3.10;;;9.50;70.00;;;;;;5036531;28;20060;-69
2023/04/10 05:40:03;;;;;;;4.63;3.10;;;9.60;70.10;;;;;;5038356;28;20026;-66
2023/04/10 05:42:29;;;;;;;6.47;3.50;;;9.60;70.10;;;;;;5049181;28;20080;-66
2023/04/10 05:44:55;;;;;;;5.22;3.40;;;9.70;70.20;;;;;;5019901;28;20473;-66
2023/04/10 05:47:21;;;;;;;7.72;3.67;;;9.80;70.10;;;;;;5046443;28;20033;-70
2023/04/10 05:49:46;;;;;;;3.90;2.85;;;9.80;70.10;;;;;;5027742;28;20642;-70
2023/04/10 05:52:12;;;;;;;5.43;3.33;;;9.90;70.10;;;;;;5041895;28;20033;-69
2023/04/10 05:54:37;;;;;;;5.03;2.75;;;9.90;70.20;;;;;;5040790;28;20065;-70
2023/04/10 05:57:03;;;;;;;4.80;3.00;;;10.00;70.20;;;;;;5040334;28;20025;-70
2023/04/10 05:59:29;;;;;;;7.03;3.78;;;10.00;70.20;;;;;;5023468;28;20123;-69
2023/04/10 06:01:56;;;;;;;5.05;3.25;;;10.10;70.10;;;;;;5022859;28;20029;-66
2023/04/10 06:04:22;;;;;;;3.88;2.72;;;10.20;70.00;;;;;;5039845;28;20078;-69
2023/04/10 06:06:48;;;;;;;5.47;3.53;;;10.20;69.90;;;;;;5044126;28;20029;-69
2023/04/10 06:09:13;;;;;;;6.07;3.45;;;10.30;69.90;;;;;;5043744;28;20029;-70
2023/04/10 06:11:39;;;;;;;5.60;3.60;;;10.40;69.90;;;;;;5020171;28;20047;-70
2023/04/10 06:14:05;;;;;;;5.82;3.60;;;10.40;69.70;;;;;;5040608;28;20120;-70
2023/04/10 06:16:31;;;;;;;4.55;3.25;;;10.50;69.60;;;;;;5017863;28;20132;-70
2023/04/10 06:18:57;;;;;;;6.93;3.85;;;10.60;69.50;;;;;;5038061;28;20028;-69
2023/04/10 06:21:22;;;;;;;4.28;3.30;;;10.60;69.80;;;;;;5045343;28;20025;-70
2023/04/10 06:23:48;;;;;;;4.68;2.70;;;10.80;69.20;;;;;;5028564;28;20028;-70
2023/04/10 06:26:14;;;;;;;7.03;4.03;;;10.80;69.00;;;;;;5017991;28;20045;-66
2023/04/10 06:28:40;;;;;;;3.85;2.65;;;10.90;68.80;;;;;;5022133;28;20034;-66
2023/04/10 06:31:06;;;;;;;5.95;2.85;;;11.00;68.60;;;;;;5022875;28;20038;-67
2023/04/10 06:33:34;;;;;;;4.90;2.80;;;11.10;68.40;;;;;;5020691;28;20030;-68
2023/04/10 06:36:00;;;;;;;5.65;2.38;;;11.20;68.10;;;;;;5027278;28;20037;-67
2023/04/10 06:38:26;;;;;;;3.95;2.60;;;11.30;67.90;;;;;;5011346;28;20038;-66
2023/04/10 06:40:52;;;;;;;4.72;2.83;;;11.30;67.70;;;;;;5023503;28;20111;-67
2023/04/10 06:43:17;;;;;;;4.30;2.53;;;11.40;67.60;;;;;;5015396;28;20030;-67
2023/04/10 06:45:44;;;;;;;4.07;2.42;;;11.50;67.40;;;;;;5024392;28;20034;-65
2023/04/10 06:48:09;;;;;;;3.20;2.22;;;11.60;67.30;;;;;;5017017;28;20053;-65
2023/04/10 06:50:35;;;;;;;4.28;2.35;;;11.70;67.10;;;;;;5024333;28;20025;-66
2023/04/10 06:53:01;;;;;;;4.65;2.17;;;11.80;66.90;;;;;;5017206;28;20040;-67
2023/04/10 06:55:27;;;;;;;3.13;2.10;;;11.90;66.50;;;;;;5018208;28;20037;-66
2023/04/10 06:57:53;;;;;;;2.78;2.22;;;12.00;66.30;;;;;;5026197;28;20037;-66
2023/04/10 07:00:19;;;;;;;4.78;2.92;;;12.00;66.00;;;;;;5022489;28;20021;-66
2023/04/10 07:02:46;;;;;;;3.60;2.78;;;12.10;65.80;;;;;;5016716;28;20028;-67
2023/04/10 07:05:12;;;;;;;5.60;2.70;;;12.10;65.50;;;;;;5016038;28;20193;-66
2023/04/10 07:07:38;;;;;;;3.10;2.00;;;12.20;65.50;;;;;;5021091;28;21000;-66
2023/04/10 07:10:05;;;;;;;3.42;2.60;;;12.20;65.30;;;;;;5017451;28;20039;-67
2023/04/10 07:12:30;;;;;;;2.78;2.15;;;12.20;65.10;;;;;;5014039;28;20421;-66
2023/04/10 07:14:56;;;;;;;3.30;2.28;;;12.40;65.10;;;;;;5021770;28;20033;-67
2023/04/10 07:17:22;;;;;;;6.05;3.17;;;12.40;64.80;;;;;;5018215;28;20025;-69
2023/04/10 07:19:47;;;;;;;9.45;3.00;;;12.60;64.50;;;;;;5022699;28;20052;-69
2023/04/10 07:22:14;;;;;;;4.57;2.42;;;12.60;64.20;;;;;;5021220;28;20075;-67
2023/04/10 07:24:40;;;;;;;6.00;2.28;;;12.70;64.20;;;;;;5024187;28;20444;-66
2023/04/10 07:27:05;;;;;;;4.35;2.35;;;12.70;64.10;;;;;;5035997;28;20037;-69
2023/04/10 07:29:31;;;;;;;4.82;2.70;;;12.80;63.60;;;;;;5036297;28;20064;-69
2023/04/10 07:31:57;;;;;;;5.88;3.55;;;12.90;63.50;;;;;;5045644;28;20501;-69
2023/04/10 07:34:24;;;;;;;5.68;2.67;;;13.00;63.20;;;;;;5028489;28;20033;-69
2023/04/10 07:36:50;;;;;;;5.05;3.08;;;13.00;62.90;;;;;;5045744;28;20033;-66
2023/04/10 07:39:16;;;;;;;5.13;3.13;;;13.00;62.50;;;;;;5050252;28;20079;-69
2023/04/10 07:41:42;;;;;;;5.10;2.83;;;13.00;62.40;;;;;;5050295;28;20477;-68
2023/04/10 07:44:08;;;;;;;6.38;2.95;;;13.10;61.90;;;;;;5026255;28;20021;-69
2023/04/10 07:46:33;;;;;;;4.45;2.70;;;13.10;61.50;;;;;;5043142;28;20083;-69
2023/04/10 07:48:59;;;;;;;3.97;2.72;;;13.10;61.20;;;;;;5040374;28;20613;-70
2023/04/10 07:51:26;;;;;;;2.47;2.03;;;13.10;61.20;;;;;;5042119;28;20443;-69
2023/04/10 07:53:52;;;;;;;3.35;1.83;;;13.20;61.30;;;;;;5047342;28;20583;-66
2023/04/10 07:56:19;;;;;;;4.50;2.60;;;13.20;61.10;;;;;;5044342;28;20075;-70
2023/04/10 07:58:45;;;;;;;3.20;2.40;;;13.30;61.00;;;;;;5047727;28;20075;-69
2023/04/10 08:01:11;;;;;;;5.32;3.13;;;13.40;60.50;;;;;;5023790;28;20497;-71
2023/04/10 08:03:39;;;;;;;3.38;2.38;;;13.40;60.40;;;;;;5045642;28;20060;-66
2023/04/10 08:06:07;;;;;;;2.45;2.25;;;13.50;60.50;;;;;;5041279;28;20188;-67
2023/04/10 08:08:35;;;;;;;4.75;2.92;;;13.50;60.80;;;;;;5037131;28;20091;-67
2023/04/10 08:11:01;;;;;;;4.03;2.40;;;13.60;60.20;;;;;;5023663;28;20033;-69
2023/04/10 08:13:27;;;;;;;3.80;2.15;;;13.70;59.80;;;;;;5040831;28;20033;-68
2023/04/10 08:15:52;;;;;;;4.78;2.20;;;13.80;59.70;;;;;;5047196;28;21208;-66
2023/04/10 08:18:18;;;;;;;1.42;1.30;;;13.90;59.70;;;;;;5048795;28;20036;-66
2023/04/10 08:20:44;;;;;;;2.95;1.95;;;14.10;59.40;;;;;;5031863;28;20029;-66
2023/04/10 08:23:09;;;;;;;3.95;2.83;;;14.30;58.60;;;;;;5041273;28;20018;-66
2023/04/10 08:25:35;;;;;;;3.80;2.15;;;14.30;58.20;;;;;;5045407;28;20104;-66
2023/04/10 08:28:01;;;;;;;3.33;2.60;;;14.40;57.20;;;;;;5018099;28;20116;-67
2023/04/10 08:30:26;;;;;;;3.30;2.05;;;14.50;56.60;;;;;;5051216;28;20090;-66
2023/04/10 08:32:52;;;;;;;4.43;2.13;;;14.50;56.60;;;;;;5048113;28;20047;-67
2023/04/10 08:35:18;;;;;;;5.18;2.38;;;14.60;56.20;;;;;;5044145;28;20069;-67
2023/04/10 08:37:43;;;;;;;4.03;2.63;;;14.70;56.30;;;;;;5032072;28;20036;-66
2023/04/10 08:40:09;;;;;;;3.65;2.35;;;14.70;56.00;;;;;;5046844;28;20059;-66
2023/04/10 08:42:35;;;;;;;3.17;1.83;;;14.70;55.70;;;;;;5049552;28;20040;-66
2023/04/10 08:45:02;;;;;;;3.25;1.98;;;14.80;55.90;;;;;;5039014;28;20033;-67
2023/04/10 08:47:32;;;;;;;3.70;2.25;;;14.80;55.60;;;;;;5040328;28;20029;-69
2023/04/10 08:50:04;;;;;;;3.00;1.67;;;14.80;55.70;;;;;;5015225;28;20040;-68
2023/04/10 08:52:32;;;;;;;3.80;2.17;;;14.90;55.80;;;;;;5038615;28;20108;-69
2023/04/10 08:55:00;;;;;;;5.30;2.72;;;14.90;55.20;;;;;;5044946;28;20361;-68
2023/04/10 08:57:26;;;;;;;1.90;1.45;;;15.00;55.30;;;;;;5038697;28;20018;-69
2023/04/10 08:59:52;;;;;;;1.98;1.30;;;15.00;55.20;;;;;;5038260;28;20056;-68
2023/04/10 09:02:18;;;;;;;3.25;1.80;;;15.20;55.40;;;;;;5028490;28;20064;-69
2023/04/10 09:04:49;;;;;;;3.28;1.65;;;15.30;54.80;;;;;;5026538;28;20029;-66
2023/04/10 09:07:15;;;;;;;2.92;1.55;;;15.40;54.60;;;;;;5038230;28;20025;-67
2023/04/10 09:09:41;;;;;;;2.38;1.88;;;15.50;54.20;;;;;;5047548;28;20086;-67
2023/04/10 09:12:07;;;;;;;3.03;1.70;;;15.60;54.20;;;;;;5045724;28;20502;-67
2023/04/10 09:14:34;;;;;;;7.28;1.98;;;15.70;54.20;;;;;;5041423;28;20032;-68
2023/04/10 09:17:20;;;;;;;3.05;1.77;;;15.80;53.30;;;;;;5040321;28;20079;-67
2023/04/10 09:19:54;;;;;;;2.25;1.85;;;15.80;53.00;;;;;;5045501;28;20029;-66
2023/04/10 09:22:34;;;;;;;3.60;2.00;;;15.60;52.80;;;;;;5027845;28;20029;-66
2023/04/10 09:25:02;;;;;;;3.47;2.13;;;15.50;53.10;;;;;;5044329;28;20028;-66
2023/04/10 09:27:31;;;;;;;3.30;1.67;;;15.40;53.40;;;;;;5044693;28;20079;-67
2023/04/10 09:29:57;;;;;;;3.60;1.80;;;15.50;53.80;;;;;;5037917;28;20021;-66
2023/04/10 09:32:41;;;;;;;4.20;1.77;;;15.60;53.90;;;;;;5025379;28;20516;-68
2023/04/10 09:35:09;;;;;;;3.40;2.03;;;15.70;53.80;;;;;;5039886;28;20638;-66
2023/04/10 09:37:35;;;;;;;2.97;1.52;;;15.80;53.50;;;;;;5043341;28;20033;-67
2023/04/10 09:40:02;;;;;;;4.55;2.13;;;15.80;53.40;;;;;;5043561;28;20033;-67
2023/04/10 09:42:37;;;;;;;2.78;1.90;;;15.90;53.10;;;;;;5016626;28;20034;-69
2023/04/10 09:45:03;;;;;;;2.22;1.58;;;15.90;53.20;;;;;;5047689;28;20514;-67
2023/04/10 09:47:30;;;;;;;3.35;1.63;;;15.90;53.30;;;;;;5026289;28;20064;-67
2023/04/10 09:49:59;;;;;;;2.65;1.67;;;15.90;53.30;;;;;;5043749;28;20044;-67
2023/04/10 09:52:26;;;;;;;1.98;1.42;;;15.90;53.40;;;;;;5040828;28;20029;-67
2023/04/10 09:54:57;;;;;;;4.68;2.15;;;15.90;53.20;;;;;;5035779;28;20405;-67
2023/04/10 09:57:25;;;;;;;3.17;2.13;;;15.80;53.00;;;;;;5039811;28;20029;-66
2023/04/10 09:59:53;;;;;;;4.05;1.88;;;15.70;52.90;;;;;;5042205;28;20044;-66
2023/04/10 10:02:20;;;;;;;2.83;1.67;;;15.70;53.40;;;;;;5041387;28;20352;-66
2023/04/10 10:04:47;;;;;;;4.10;1.85;;;15.70;53.60;;;;;;5026913;28;20075;-67
2023/04/10 10:07:18;;;;;;;2.67;1.77;;;15.80;53.70;;;;;;5018735;28;20101;-65
2023/04/10 10:09:45;;;;;;;2.90;1.58;;;15.70;53.50;;;;;;5043804;28;20032;-67
2023/04/10 10:12:14;;;;;;;1.45;1.25;;;15.70;53.80;;;;;;5041635;28;20520;-66
2023/04/10 10:15:09;;;;;;;1.85;1.23;;;15.80;54.10;;;;;;5017384;28;20131;-67
2023/04/10 10:17:59;;;;;;;3.45;1.70;;;15.90;54.00;;;;;;5040685;28;20071;-66
2023/04/10 10:20:26;;;;;;;5.68;2.22;;;15.90;53.40;;;;;;5048003;28;20048;-67
2023/04/10 10:22:53;;;;;;;2.47;1.17;;;16.00;53.70;;;;;;5028328;28;20071;-69
2023/04/10 10:25:19;;;;;;;5.90;1.95;;;16.00;53.80;;;;;;5039604;28;20032;-68
2023/04/10 10:27:48;;;;;;;2.60;1.30;;;16.10;53.60;;;;;;5034532;28;20051;-68
2023/04/10 10:30:33;;;;;;;3.35;2.00;;;16.20;53.60;;;;;;5000273;28;20035;-68
2023/04/10 10:33:01;;;;;;;4.03;2.22;;;16.30;53.40;;;;;;5044417;28;20033;-68
2023/04/10 10:35:26;;;;;;;4.00;1.63;;;16.30;53.40;;;;;;5044942;28;20021;-69
2023/04/10 10:37:54;;;;;;;2.80;1.50;;;16.30;53.30;;;;;;5040971;28;20434;-68
2023/04/10 10:40:39;;;;;;;2.88;2.03;;;16.40;53.40;;;;;;5038834;28;20021;-68
2023/04/10 10:43:31;;;;;;;1.98;1.33;;;16.40;53.30;;;;;;5033672;28;20018;-68
2023/04/10 10:46:11;;;;;;;3.08;1.70;;;16.50;53.40;;;;;;5039503;28;20121;-67
2023/04/10 10:48:37;;;;;;;1.70;1.20;;;16.60;53.30;;;;;;5044796;28;20029;-67
2023/04/10 10:51:03;;;;;;;3.42;2.03;;;16.60;53.10;;;;;;5019910;28;20025;-69
2023/04/10 10:53:34;;;;;;;3.25;1.75;;;16.70;52.90;;;;;;5026628;28;20955;-66
2023/04/10 10:56:19;;;;;;;1.98;1.30;;;16.80;52.80;;;;;;5046333;28;20095;-68
2023/04/10 10:58:54;;;;;;;1.85;1.30;;;16.80;52.60;;;;;;5049081;28;20036;-68
2023/04/10 11:01:21;;;;;;;2.30;1.73;;;16.90;52.60;;;;;;5047814;28;20360;-67
2023/04/10 11:03:47;;;;;;;2.42;1.65;;;16.90;52.30;;;;;;5045743;28;20041;-70
2023/04/10 11:06:20;;;;;;;2.42;1.42;;;17.00;52.20;;;;;;5030421;28;20095;-67
2023/04/10 11:08:53;;;;;;;2.28;1.35;;;17.10;51.90;;;;;;5028219;28;20072;-69
2023/04/10 11:11:22;;;;;;;1.38;1.10;;;17.20;51.60;;;;;;5044784;28;20056;-69
2023/04/10 11:13:56;;;;;;;2.03;1.50;;;17.30;51.30;;;;;;5042981;28;20037;-68
2023/04/10 11:16:35;;;;;;;3.85;1.58;;;17.40;50.90;;;;;;5039557;28;20040;-69
2023/04/10 11:19:11;;;;;;;2.70;1.67;;;17.40;50.60;;;;;;5044510;28;20043;-69
2023/04/10 11:22:04;;;;;;;1.38;1.13;;;17.50;50.70;;;;;;5048610;28;20176;-66
2023/04/10 11:24:51;;;;;;;2.70;1.85;;;17.60;50.90;;;;;;5022844;28;20175;-69
2023/04/10 11:27:47;;;;;;;2.20;1.50;;;17.80;50.50;;;;;;5037570;28;20048;-66
2023/04/10 11:30:28;;;;;;;1.45;1.35;;;17.90;50.20;;;;;;5041873;28;20429;-65
2023/04/10 11:32:55;;;;;;;1.17;1.07;;;18.00;50.40;;;;;;5048003;28;20055;-68
2023/04/10 11:35:21;;;;;;;4.40;1.40;;;18.20;50.10;;;;;;5047184;28;20025;-68
2023/04/10 11:37:46;;;;;;;1.90;1.40;;;18.40;49.90;;;;;;5046666;28;20073;-66
2023/04/10 11:40:12;;;;;;;2.60;1.40;;;18.50;49.70;;;;;;5024011;28;20060;-69
2023/04/10 11:42:38;;;;;;;1.67;1.42;;;18.50;49.40;;;;;;5049736;28;20060;-68
2023/04/10 11:45:25;;;;;;;2.30;1.48;;;18.70;49.60;;;;;;5031526;28;20598;-67
2023/04/10 11:47:52;;;;;;;2.13;1.25;;;19.10;49.30;;;;;;5040880;28;20032;-67
2023/04/10 11:50:19;;;;;;;2.38;1.55;;;19.40;49.10;;;;;;5027994;28;20053;-67
2023/04/10 11:52:48;;;;;;;1.90;1.00;;;19.60;47.90;;;;;;5043620;28;20036;-67
2023/04/10 11:55:15;;;;;;;2.03;1.33;;;19.50;47.60;;;;;;5047835;28;20439;-68
2023/04/10 11:57:41;;;;;;;3.03;1.48;;;19.50;47.80;;;;;;5008754;28;20044;-69
2023/04/10 12:00:08;;;;;;;1.90;1.27;;;19.50;47.70;;;;;;5017737;28;20033;-69
2023/04/10 12:02:33;;;;;;;1.83;1.50;;;19.30;47.80;;;;;;5028119;28;20025;-69
2023/04/10 12:04:59;;;;;;;1.20;1.10;;;19.20;47.90;;;;;;5043312;28;21074;-68
2023/04/10 12:07:30;;;;;;;3.33;1.27;;;19.00;48.20;;;;;;5042367;28;20100;-66
2023/04/10 12:09:56;;;;;;;2.97;1.52;;;18.90;48.10;;;;;;5048649;28;20400;-65
2023/04/10 12:12:37;;;;;;;2.58;1.63;;;18.90;48.10;;;;;;5044427;28;20059;-67
2023/04/10 12:15:22;;;;;;;1.30;1.10;;;18.90;48.20;;;;;;5042189;28;20036;-66
2023/04/10 12:17:48;;;;;;;2.05;1.50;;;18.80;48.30;;;;;;5039490;28;20026;-66
2023/04/10 12:20:15;;;;;;;1.05;0.93;;;18.80;48.30;;;;;;5046757;28;20029;-67
2023/04/10 12:22:42;;;;;;;1.35;1.17;;;18.80;48.70;;;;;;5023408;28;20021;-69
2023/04/10 12:25:11;;;;;;;1.30;0.90;;;18.90;48.60;;;;;;5036466;28;20502;-68
2023/04/10 12:27:37;;;;;;;1.42;1.10;;;19.00;48.70;;;;;;5039994;28;20072;-69
2023/04/10 12:30:07;;;;;;;1.50;1.00;;;19.10;48.80;;;;;;5026413;28;20068;-69
2023/04/10 12:32:33;;;;;;;1.52;1.42;;;19.20;48.30;;;;;;5027274;28;20037;-67
2023/04/10 12:35:02;;;;;;;1.10;1.00;;;19.30;48.00;;;;;;5045118;28;20561;-69
2023/04/10 12:37:46;;;;;;;1.40;1.10;;;19.30;47.90;;;;;;5017542;28;20527;-69
2023/04/10 12:40:12;;;;;;;2.50;1.65;;;19.40;47.80;;;;;;5037110;28;20112;-68
2023/04/10 12:42:41;;;;;;;2.22;1.05;;;19.40;47.60;;;;;;5028694;28;20498;-69
2023/04/10 12:45:08;;;;;;;1.33;1.02;;;19.30;46.70;;;;;;5044444;28;20033;-69
2023/04/10 12:47:45;;;;;;;1.85;1.05;;;19.20;46.50;;;;;;5044602;28;20447;-68
2023/04/10 12:50:14;;;;;;;1.92;1.38;;;19.30;47.10;;;;;;5021376;28;20053;-69
2023/04/10 12:52:45;;;;;;;1.33;1.08;;;19.60;46.90;;;;;;5042508;28;20025;-68
2023/04/10 12:55:16;;;;;;;1.48;1.15;;;19.70;46.40;;;;;;5047228;28;20021;-69
2023/04/10 12:57:47;;;;;;;13.88;1.30;;;19.70;45.70;;;;;;5021626;28;20572;-69